»·PEaware :: N751LU KVNY-KSNA

N751LU :: KVNY-KSNA

FLIGHT INFORMATION

Flight Status: Arrived
Operator: Privately registered:
United States
More flights under this callsign
Pilot: Alex M. (18860)
Aircraft: PIPER PA-28R-201 ARROW
(P28R)
More flights by this aircraft type
Origin: KVNY Van Nuys
United States
Destination: KSNA John Wayne-Orange Co
United States
More flights between these airports :: More routes between these airports
Route: +ADAMM3 ADAMM V186 BAYJY V363 POXKU V8 SLI
File this flight plan on PilotEdge
Remarks: TEC route BURP20
Altitude:
(Current/Filed)
5,000ft
Speed:
(Current/Filed)
140kts
Departed: 23-May-20 10:04 AM
Arrived: 23-May-20 10:37 AM
Distance/Time
Traveled:
29nm/0:33
Distance/Time
To Go:
Arrived

Flight Plot

Page will automatically refresh every two minutes.


Map Options




Map Legend


Flown Route
Filed Route
Departure Airport
Arrival Airport
Navaid (VOR, NDB)
Fix

Horizontal Profiles

Position Reports

Time Latitude Longitude Heading Altitude Ground
Speed
23-May-20 09:31 34.204650 -118.491376 43 805ft 0kts
23-May-20 09:32 34.204650 -118.491376 43 805ft 0kts
23-May-20 09:33 34.204650 -118.491376 43 805ft 0kts
23-May-20 09:34 34.204650 -118.491376 43 805ft 0kts
23-May-20 09:35 34.204650 -118.491376 43 805ft 0kts
23-May-20 09:36 34.204650 -118.491376 43 805ft 0kts
23-May-20 09:37 34.204650 -118.491376 43 805ft 0kts
23-May-20 09:37 34.204650 -118.491376 43 805ft 0kts
23-May-20 09:39 34.204650 -118.491376 43 805ft 0kts
23-May-20 09:40 34.204650 -118.491376 43 805ft 0kts
23-May-20 09:40 34.204650 -118.491376 43 805ft 0kts
23-May-20 09:41 34.204650 -118.491376 43 805ft 0kts
23-May-20 09:43 34.204650 -118.491376 43 805ft 0kts
23-May-20 09:43 34.204650 -118.491376 43 805ft 0kts
23-May-20 09:44 34.204650 -118.491376 43 805ft 0kts
23-May-20 09:46 34.204650 -118.491376 43 805ft 0kts
23-May-20 09:46 34.204650 -118.491376 43 805ft 0kts
23-May-20 09:47 34.204650 -118.491376 43 805ft 0kts
23-May-20 09:48 34.204650 -118.491376 43 805ft 0kts
23-May-20 09:49 34.204650 -118.491376 43 805ft 0kts
23-May-20 09:50 34.204650 -118.491376 43 805ft 0kts
23-May-20 09:51 34.204650 -118.491376 43 805ft 0kts
23-May-20 09:52 34.204650 -118.491376 43 805ft 0kts
23-May-20 09:53 34.204650 -118.491376 43 805ft 0kts
23-May-20 09:54 34.204650 -118.491376 43 805ft 0kts
23-May-20 09:55 34.204650 -118.491376 43 805ft 0kts
23-May-20 09:56 34.204664 -118.491359 43 805ft 2kts
23-May-20 09:57 34.208872 -118.491450 358 805ft 19kts
23-May-20 09:58 34.213610 -118.491904 355 805ft 15kts
23-May-20 09:59 34.217790 -118.492305 353 805ft 12kts
23-May-20 10:00 34.218690 -118.492125 58 805ft 0kts
23-May-20 10:01 34.218690 -118.492125 58 805ft 0kts
23-May-20 10:02 34.218736 -118.491613 110 805ft 12kts
23-May-20 10:03 34.207507 -118.490165 174 992ft 94kts
23-May-20 10:04 34.181264 -118.486656 136 2138ft 95kts
23-May-20 10:05 34.164993 -118.460476 125 3137ft 99kts
23-May-20 10:06 34.147720 -118.432545 129 3922ft 111kts
23-May-20 10:07 34.124066 -118.401035 134 3954ft 134kts
23-May-20 10:08 34.102543 -118.364575 99 3969ft 135kts
23-May-20 10:09 34.103480 -118.324042 96 4486ft 116kts
23-May-20 10:10 34.097703 -118.286119 107 4960ft 128kts
23-May-20 10:11 34.090665 -118.243158 98 5009ft 130kts
23-May-20 10:12 34.087519 -118.199106 95 5012ft 132kts
23-May-20 10:13 34.084617 -118.154717 90 4994ft 132kts
23-May-20 10:14 34.081230 -118.110624 98 5033ft 130kts
23-May-20 10:15 34.078015 -118.066657 94 5036ft 131kts
23-May-20 10:16 34.069487 -118.023295 96 4994ft 132kts
23-May-20 10:17 34.063444 -117.979638 94 5015ft 132kts
23-May-20 10:18 34.053855 -117.937432 112 5027ft 133kts
23-May-20 10:19 34.040685 -117.895393 106 4993ft 133kts
23-May-20 10:20 34.028936 -117.853071 107 4981ft 133kts
23-May-20 10:21 34.015227 -117.811805 109 5006ft 132kts
23-May-20 10:22 33.989733 -117.786880 185 4976ft 137kts
23-May-20 10:23 33.951703 -117.786659 174 4954ft 135kts
23-May-20 10:24 33.914334 -117.786203 176 5009ft 134kts
23-May-20 10:25 33.878673 -117.780263 166 5023ft 135kts
23-May-20 10:26 33.841315 -117.780468 184 4752ft 139kts
23-May-20 10:27 33.803675 -117.785811 187 3665ft 129kts
23-May-20 10:28 33.771095 -117.797676 211 2929ft 124kts
23-May-20 10:29 33.741437 -117.820642 216 2937ft 130kts
23-May-20 10:30 33.711340 -117.846182 211 2814ft 133kts
23-May-20 10:31 33.677579 -117.864397 203 2512ft 141kts
23-May-20 10:32 33.654923 -117.891202 323 1510ft 127kts
23-May-20 10:33 33.683649 -117.875589 28 1067ft 106kts
23-May-20 10:34 33.704266 -117.856474 102 939ft 83kts
23-May-20 10:35 33.688396 -117.860638 207 286ft 66kts
23-May-20 10:36 33.675847 -117.869018 244 59ft 15kts
23-May-20 10:37 33.675974 -117.869789 299 59ft 0kts
23-May-20 10:38 33.675974 -117.869789 299 59ft 0kts
23-May-20 10:39 33.674261 -117.871238 208 59ft 17kts
23-May-20 10:40 33.672666 -117.873121 224 59ft 0kts
23-May-20 10:47 33.812114 -118.150872 90 40ft 0kts
23-May-20 10:49 33.812164 -118.151428 90 40ft 0kts
23-May-20 10:50 33.812164 -118.151428 90 40ft 0kts

Navigation Log

Ident Type
Flight plan parsing failed, navigation log unavailable